CCA116 EDDK-EDDW
Flight info
| Callsign | CCA116 |
|---|---|
| Flight time | 0h 33m |
| Altitude | 27000 |
| Route | PODIP2Q/13L PODIP Y867 WRB/N0399F220 N850 NIE Z88 VERED VERED3P |
| Aircraft | A319/M-SDE3FGHIRWY/LB1 |
Departure
| Time | 2026-04-22 17:54 |
|---|---|
| Airport | Cologne Bonn Airport (EDDK) |
Arrival
| Time | 2026-04-22 18:28 |
|---|---|
| Airport | Bremen Airport (EDDW) |
| Time | Latitude | Longitude | Altitude | Speed | Heading |
|---|---|---|---|---|---|
| 2026-04-22 17:46 | 50.87876 | 7.12451 | 234 ft | 0 kts | 288° |
| 2026-04-22 17:50 | 50.87873 | 7.12462 | 232 ft | 2 kts | 286° |
| 2026-04-22 17:50 | 50.87868 | 7.12487 | 233 ft | 2 kts | 289° |
| 2026-04-22 17:50 | 50.87863 | 7.12512 | 233 ft | 2 kts | 290° |
| 2026-04-22 17:50 | 50.87857 | 7.12537 | 232 ft | 2 kts | 293° |
| 2026-04-22 17:51 | 50.87850 | 7.12560 | 232 ft | 2 kts | 301° |
| 2026-04-22 17:51 | 50.87840 | 7.12581 | 232 ft | 2 kts | 347° |
| 2026-04-22 17:51 | 50.87828 | 7.12582 | 233 ft | 1 kts | 17° |
| 2026-04-22 17:51 | 50.87828 | 7.12581 | 233 ft | 0 kts | 16° |
| 2026-04-22 17:52 | 50.87827 | 7.12581 | 233 ft | 0 kts | 16° |
| 2026-04-22 17:52 | 50.87844 | 7.12589 | 232 ft | 6 kts | 17° |
| 2026-04-22 17:52 | 50.87898 | 7.12617 | 232 ft | 9 kts | 19° |
| 2026-04-22 17:53 | 50.87961 | 7.12668 | 232 ft | 11 kts | 41° |
| 2026-04-22 17:53 | 50.88001 | 7.12781 | 237 ft | 12 kts | 71° |
| 2026-04-22 17:53 | 50.87997 | 7.12935 | 239 ft | 17 kts | 109° |
| 2026-04-22 17:53 | 50.87904 | 7.13116 | 239 ft | 34 kts | 137° |
| 2026-04-22 17:54 | 50.87512 | 7.13684 | 240 ft | 114 kts | 137° |
| 2026-04-22 17:54 | 50.86769 | 7.14763 | 291 ft | 170 kts | 136° |
| 2026-04-22 17:54 | 50.85906 | 7.16006 | 1022 ft | 169 kts | 135° |
| 2026-04-22 17:54 | 50.85015 | 7.17251 | 1831 ft | 173 kts | 135° |
| 2026-04-22 17:55 | 50.84379 | 7.18147 | 2163 ft | 188 kts | 135° |
| 2026-04-22 17:55 | 50.83004 | 7.20093 | 2945 ft | 208 kts | 135° |
| 2026-04-22 17:55 | 50.82001 | 7.21742 | 3880 ft | 209 kts | 121° |
| 2026-04-22 17:55 | 50.81461 | 7.23860 | 4815 ft | 209 kts | 98° |
| 2026-04-22 17:56 | 50.81254 | 7.26224 | 5489 ft | 228 kts | 96° |
| 2026-04-22 17:56 | 50.81031 | 7.28875 | 6057 ft | 252 kts | 97° |
| 2026-04-22 17:56 | 50.80848 | 7.31701 | 6888 ft | 264 kts | 88° |
| 2026-04-22 17:56 | 50.81307 | 7.34527 | 7832 ft | 270 kts | 62° |
| 2026-04-22 17:57 | 50.82297 | 7.37053 | 8883 ft | 271 kts | 57° |
| 2026-04-22 17:57 | 50.83321 | 7.39574 | 9957 ft | 273 kts | 57° |
| 2026-04-22 17:57 | 50.84358 | 7.42122 | 10769 ft | 284 kts | 57° |
| 2026-04-22 17:57 | 50.85485 | 7.44901 | 11149 ft | 308 kts | 57° |
| 2026-04-22 17:58 | 50.86677 | 7.47847 | 11675 ft | 324 kts | 57° |
| 2026-04-22 17:58 | 50.87901 | 7.50878 | 12473 ft | 329 kts | 57° |
| 2026-04-22 17:58 | 50.89139 | 7.53950 | 13347 ft | 333 kts | 57° |
| 2026-04-22 17:58 | 50.90390 | 7.57061 | 14199 ft | 336 kts | 57° |
| 2026-04-22 17:59 | 50.91651 | 7.60200 | 14966 ft | 340 kts | 57° |
| 2026-04-22 17:59 | 50.92929 | 7.63374 | 15722 ft | 343 kts | 57° |
| 2026-04-22 17:59 | 50.94215 | 7.66575 | 16470 ft | 346 kts | 57° |
| 2026-04-22 17:59 | 50.95513 | 7.69817 | 17222 ft | 350 kts | 57° |
| 2026-04-22 18:00 | 50.96376 | 7.71980 | 17709 ft | 352 kts | 57° |
| 2026-04-22 18:00 | 50.98139 | 7.76397 | 18678 ft | 356 kts | 56° |
| 2026-04-22 18:00 | 50.99470 | 7.79732 | 19329 ft | 360 kts | 56° |
| 2026-04-22 18:00 | 51.00818 | 7.83106 | 19968 ft | 363 kts | 56° |
| 2026-04-22 18:01 | 51.02178 | 7.86513 | 20610 ft | 367 kts | 57° |
| 2026-04-22 18:01 | 51.03546 | 7.89956 | 21234 ft | 370 kts | 57° |
| 2026-04-22 18:01 | 51.04924 | 7.93437 | 21861 ft | 374 kts | 57° |
| 2026-04-22 18:01 | 51.06316 | 7.96954 | 22469 ft | 378 kts | 57° |
| 2026-04-22 18:02 | 51.07719 | 8.00501 | 23054 ft | 381 kts | 57° |
| 2026-04-22 18:02 | 51.09150 | 8.04121 | 23307 ft | 393 kts | 57° |
| 2026-04-22 18:02 | 51.10625 | 8.07853 | 23459 ft | 405 kts | 57° |
| 2026-04-22 18:02 | 51.12143 | 8.11699 | 23647 ft | 414 kts | 57° |
| 2026-04-22 18:03 | 51.13858 | 8.15317 | 24513 ft | 404 kts | 46° |
| 2026-04-22 18:03 | 51.16034 | 8.18076 | 25260 ft | 400 kts | 31° |
| 2026-04-22 18:03 | 51.18509 | 8.20132 | 25804 ft | 401 kts | 27° |
| 2026-04-22 18:03 | 51.21013 | 8.22110 | 26286 ft | 403 kts | 27° |
| 2026-04-22 18:04 | 51.23541 | 8.24074 | 26738 ft | 405 kts | 27° |
| 2026-04-22 18:04 | 51.26091 | 8.26043 | 27172 ft | 408 kts | 27° |
| 2026-04-22 18:04 | 51.28625 | 8.28011 | 27321 ft | 410 kts | 27° |
| 2026-04-22 18:04 | 51.31239 | 8.30063 | 27351 ft | 422 kts | 27° |
| 2026-04-22 18:05 | 51.33907 | 8.32171 | 27351 ft | 433 kts | 27° |
| 2026-04-22 18:05 | 51.36631 | 8.34331 | 27346 ft | 441 kts | 27° |
| 2026-04-22 18:05 | 51.39384 | 8.36517 | 27351 ft | 444 kts | 27° |
| 2026-04-22 18:05 | 51.42157 | 8.38718 | 27354 ft | 445 kts | 27° |
| 2026-04-22 18:06 | 51.44936 | 8.40924 | 27349 ft | 446 kts | 27° |
| 2026-04-22 18:06 | 51.47719 | 8.43138 | 27352 ft | 446 kts | 28° |
| 2026-04-22 18:06 | 51.50498 | 8.45355 | 27356 ft | 447 kts | 28° |
| 2026-04-22 18:06 | 51.53284 | 8.47578 | 27359 ft | 447 kts | 28° |
| 2026-04-22 18:07 | 51.55128 | 8.49051 | 27354 ft | 447 kts | 28° |
| 2026-04-22 18:07 | 51.58862 | 8.52032 | 27350 ft | 448 kts | 28° |
| 2026-04-22 18:07 | 51.61656 | 8.54265 | 27345 ft | 448 kts | 28° |
| 2026-04-22 18:07 | 51.64444 | 8.56499 | 27348 ft | 448 kts | 28° |
| 2026-04-22 18:08 | 51.67236 | 8.58746 | 27339 ft | 448 kts | 28° |
| 2026-04-22 18:08 | 51.70021 | 8.60991 | 27335 ft | 448 kts | 28° |
| 2026-04-22 18:08 | 51.72808 | 8.63236 | 27337 ft | 448 kts | 28° |
| 2026-04-22 18:08 | 51.75601 | 8.65485 | 27335 ft | 448 kts | 28° |
| 2026-04-22 18:09 | 51.78390 | 8.67737 | 27327 ft | 448 kts | 28° |
| 2026-04-22 18:09 | 51.81175 | 8.69988 | 27328 ft | 448 kts | 28° |
| 2026-04-22 18:09 | 51.83965 | 8.72241 | 27173 ft | 446 kts | 28° |
| 2026-04-22 18:09 | 51.86733 | 8.74479 | 26081 ft | 447 kts | 28° |
| 2026-04-22 18:10 | 51.89531 | 8.76753 | 25418 ft | 452 kts | 28° |
| 2026-04-22 18:10 | 51.92342 | 8.79039 | 24736 ft | 452 kts | 28° |
| 2026-04-22 18:10 | 51.95146 | 8.81321 | 24098 ft | 449 kts | 28° |
| 2026-04-22 18:10 | 51.97923 | 8.83582 | 23510 ft | 444 kts | 28° |
| 2026-04-22 18:11 | 52.00671 | 8.85824 | 22902 ft | 440 kts | 28° |
| 2026-04-22 18:11 | 52.03395 | 8.88050 | 22304 ft | 436 kts | 28° |
| 2026-04-22 18:11 | 52.06092 | 8.90259 | 21728 ft | 432 kts | 28° |
| 2026-04-22 18:11 | 52.08762 | 8.92447 | 21152 ft | 428 kts | 27° |
| 2026-04-22 18:12 | 52.11408 | 8.94619 | 20592 ft | 424 kts | 27° |
| 2026-04-22 18:12 | 52.13162 | 8.96060 | 20221 ft | 422 kts | 27° |
| 2026-04-22 18:12 | 52.15758 | 8.98195 | 19680 ft | 418 kts | 27° |
| 2026-04-22 18:12 | 52.18341 | 9.00326 | 19143 ft | 415 kts | 27° |
| 2026-04-22 18:13 | 52.20902 | 9.02444 | 18619 ft | 411 kts | 27° |
| 2026-04-22 18:13 | 52.23444 | 9.04547 | 18019 ft | 408 kts | 27° |
| 2026-04-22 18:13 | 52.25965 | 9.06632 | 17427 ft | 404 kts | 27° |
| 2026-04-22 18:13 | 52.28462 | 9.08698 | 16849 ft | 401 kts | 27° |
| 2026-04-22 18:14 | 52.30935 | 9.10746 | 16280 ft | 396 kts | 27° |
| 2026-04-22 18:14 | 52.33368 | 9.12763 | 15801 ft | 388 kts | 27° |
| 2026-04-22 18:14 | 52.35748 | 9.14742 | 15419 ft | 379 kts | 27° |
| 2026-04-22 18:14 | 52.38069 | 9.16674 | 15046 ft | 370 kts | 27° |
| 2026-04-22 18:15 | 52.40362 | 9.18451 | 14674 ft | 360 kts | 19° |
| 2026-04-22 18:15 | 52.42786 | 9.19211 | 14317 ft | 352 kts | 2° |
| 2026-04-22 18:15 | 52.45213 | 9.19166 | 13934 ft | 344 kts | 360° |
| 2026-04-22 18:15 | 52.47578 | 9.19093 | 13531 ft | 337 kts | 359° |
| 2026-04-22 18:16 | 52.49899 | 9.19016 | 13134 ft | 330 kts | 359° |
| 2026-04-22 18:16 | 52.52176 | 9.18937 | 12741 ft | 324 kts | 359° |
| 2026-04-22 18:16 | 52.54411 | 9.18854 | 12351 ft | 318 kts | 359° |
| 2026-04-22 18:16 | 52.56611 | 9.18770 | 11962 ft | 313 kts | 359° |
| 2026-04-22 18:17 | 52.58773 | 9.18684 | 11584 ft | 309 kts | 359° |
| 2026-04-22 18:17 | 52.60901 | 9.18605 | 11353 ft | 303 kts | 359° |
| 2026-04-22 18:17 | 52.63006 | 9.18533 | 11332 ft | 303 kts | 359° |
| 2026-04-22 18:17 | 52.65112 | 9.18463 | 11081 ft | 302 kts | 359° |
| 2026-04-22 18:18 | 52.67208 | 9.18392 | 10838 ft | 301 kts | 359° |
| 2026-04-22 18:18 | 52.69296 | 9.18318 | 10589 ft | 300 kts | 359° |
| 2026-04-22 18:18 | 52.71381 | 9.18245 | 10346 ft | 299 kts | 359° |
| 2026-04-22 18:18 | 52.73443 | 9.18176 | 10196 ft | 293 kts | 359° |
| 2026-04-22 18:19 | 52.75435 | 9.18105 | 10104 ft | 280 kts | 359° |
| 2026-04-22 18:19 | 52.77365 | 9.18034 | 10042 ft | 276 kts | 359° |
| 2026-04-22 18:19 | 52.79285 | 9.17964 | 9878 ft | 276 kts | 359° |
| 2026-04-22 18:19 | 52.81203 | 9.17897 | 9433 ft | 274 kts | 359° |
| 2026-04-22 18:20 | 52.83109 | 9.17830 | 9038 ft | 273 kts | 359° |
| 2026-04-22 18:20 | 52.84994 | 9.17763 | 8654 ft | 271 kts | 359° |
| 2026-04-22 18:20 | 52.86874 | 9.17694 | 8275 ft | 269 kts | 359° |
| 2026-04-22 18:20 | 52.88740 | 9.17626 | 7896 ft | 268 kts | 359° |
| 2026-04-22 18:21 | 52.90625 | 9.17561 | 7514 ft | 266 kts | 359° |
| 2026-04-22 18:21 | 52.92468 | 9.17495 | 7144 ft | 264 kts | 359° |
| 2026-04-22 18:21 | 52.94296 | 9.17428 | 6768 ft | 261 kts | 359° |
| 2026-04-22 18:21 | 52.96081 | 9.17363 | 6389 ft | 254 kts | 359° |
| 2026-04-22 18:22 | 52.97830 | 9.17296 | 6046 ft | 247 kts | 359° |
| 2026-04-22 18:22 | 52.99520 | 9.17230 | 5689 ft | 240 kts | 359° |
| 2026-04-22 18:22 | 53.01163 | 9.17037 | 5284 ft | 236 kts | 350° |
| 2026-04-22 18:22 | 53.02707 | 9.16148 | 4763 ft | 234 kts | 331° |
| 2026-04-22 18:23 | 53.03906 | 9.14435 | 4444 ft | 226 kts | 309° |
| 2026-04-22 18:23 | 53.04659 | 9.12191 | 4093 ft | 222 kts | 293° |
| 2026-04-22 18:23 | 53.05089 | 9.09775 | 3725 ft | 219 kts | 283° |
| 2026-04-22 18:24 | 53.05302 | 9.04745 | 3044 ft | 218 kts | 267° |
| 2026-04-22 18:24 | 53.05140 | 9.02210 | 2535 ft | 221 kts | 269° |
| 2026-04-22 18:24 | 53.05093 | 8.97366 | 2043 ft | 191 kts | 270° |
| 2026-04-22 18:25 | 53.05039 | 8.95280 | 1909 ft | 173 kts | 272° |
| 2026-04-22 18:25 | 53.05007 | 8.93328 | 1665 ft | 165 kts | 271° |
| 2026-04-22 18:25 | 53.04955 | 8.91489 | 1475 ft | 148 kts | 272° |
| 2026-04-22 18:26 | 53.04884 | 8.88298 | 1052 ft | 133 kts | 272° |
| 2026-04-22 18:26 | 53.04854 | 8.86757 | 839 ft | 133 kts | 272° |
| 2026-04-22 18:26 | 53.04817 | 8.85233 | 657 ft | 131 kts | 272° |
| 2026-04-22 18:26 | 53.04788 | 8.83746 | 438 ft | 127 kts | 272° |
| 2026-04-22 18:27 | 53.04758 | 8.82270 | 256 ft | 129 kts | 272° |
| 2026-04-22 18:27 | 53.04733 | 8.80792 | 87 ft | 127 kts | 272° |
| 2026-04-22 18:27 | 53.04703 | 8.79386 | 20 ft | 105 kts | 268° |
| 2026-04-22 18:27 | 53.04680 | 8.78442 | 20 ft | 62 kts | 268° |
| 2026-04-22 18:28 | 53.04665 | 8.77774 | 19 ft | 49 kts | 268° |
| 2026-04-22 18:28 | 53.04691 | 8.77478 | 20 ft | 20 kts | 315° |
| 2026-04-22 18:28 | 53.04830 | 8.77472 | 20 ft | 22 kts | 16° |
| 2026-04-22 18:28 | 53.04959 | 8.77609 | 19 ft | 23 kts | 45° |
| 2026-04-22 18:29 | 53.05069 | 8.77804 | 19 ft | 23 kts | 47° |
| 2026-04-22 18:29 | 53.05165 | 8.77995 | 19 ft | 21 kts | 59° |
| 2026-04-22 18:29 | 53.05189 | 8.78184 | 19 ft | 14 kts | 100° |
| 2026-04-22 18:29 | 53.05164 | 8.78332 | 19 ft | 13 kts | 111° |
| 2026-04-22 18:30 | 53.05132 | 8.78442 | 22 ft | 7 kts | 90° |
| 2026-04-22 18:30 | 53.05172 | 8.78531 | 19 ft | 0 kts | 49° |